sensor_id;sensor_type;location;lat;lon;timestamp;pressure;altitude;pressure_sealevel;temperature;humidity
38780;BME280;29273;49.962;9.768;2023-06-26T00:00:18;99727.03;;;23.87;44.91
38780;BME280;29273;49.962;9.768;2023-06-26T00:02:45;99726.81;;;23.83;45.09
38780;BME280;29273;49.962;9.768;2023-06-26T00:05:10;99725.47;;;23.81;45.36
38780;BME280;29273;49.962;9.768;2023-06-26T00:07:36;99723.63;;;23.76;45.28
38780;BME280;29273;49.962;9.768;2023-06-26T00:10:03;99722.84;;;23.76;44.76
38780;BME280;29273;49.962;9.768;2023-06-26T00:12:29;99733.44;;;23.72;45.24
38780;BME280;29273;49.962;9.768;2023-06-26T00:14:55;99727.00;;;23.68;45.38
38780;BME280;29273;49.962;9.768;2023-06-26T00:17:21;99724.06;;;23.64;45.58
38780;BME280;29273;49.962;9.768;2023-06-26T00:19:46;99724.94;;;23.60;45.40
38780;BME280;29273;49.962;9.768;2023-06-26T00:22:12;99726.31;;;23.57;45.60
38780;BME280;29273;49.962;9.768;2023-06-26T00:24:37;99734.50;;;23.52;45.59
38780;BME280;29273;49.962;9.768;2023-06-26T00:27:03;99728.88;;;23.49;45.61
38780;BME280;29273;49.962;9.768;2023-06-26T00:29:28;99730.53;;;23.44;45.63
38780;BME280;29273;49.962;9.768;2023-06-26T00:31:54;99733.81;;;23.41;46.17
38780;BME280;29273;49.962;9.768;2023-06-26T00:34:19;99738.47;;;23.36;46.15
38780;BME280;29273;49.962;9.768;2023-06-26T00:36:45;99733.66;;;23.33;46.23
38780;BME280;29273;49.962;9.768;2023-06-26T00:39:11;99733.44;;;23.29;46.40
38780;BME280;29273;49.962;9.768;2023-06-26T00:41:37;99727.50;;;23.27;46.34
38780;BME280;29273;49.962;9.768;2023-06-26T00:44:04;99730.78;;;23.24;45.94
38780;BME280;29273;49.962;9.768;2023-06-26T00:46:30;99729.72;;;23.20;46.31
38780;BME280;29273;49.962;9.768;2023-06-26T00:48:58;99725.94;;;23.21;45.23
38780;BME280;29273;49.962;9.768;2023-06-26T00:51:24;99731.69;;;23.14;46.07
38780;BME280;29273;49.962;9.768;2023-06-26T00:53:50;99725.56;;;23.08;46.31
38780;BME280;29273;49.962;9.768;2023-06-26T00:56:17;99719.06;;;23.04;46.28
38780;BME280;29273;49.962;9.768;2023-06-26T00:58:44;99721.56;;;23.01;46.36
38780;BME280;29273;49.962;9.768;2023-06-26T01:01:09;99721.59;;;22.96;46.79
38780;BME280;29273;49.962;9.768;2023-06-26T01:03:41;99719.75;;;22.91;46.69
38780;BME280;29273;49.962;9.768;2023-06-26T01:06:09;99710.28;;;22.94;45.79
38780;BME280;29273;49.962;9.768;2023-06-26T01:08:37;99711.44;;;22.87;46.74
38780;BME280;29273;49.962;9.768;2023-06-26T01:11:03;99709.28;;;22.84;47.12
38780;BME280;29273;49.962;9.768;2023-06-26T01:13:29;99700.69;;;22.82;46.82
38780;BME280;29273;49.962;9.768;2023-06-26T01:15:57;99709.56;;;22.83;46.42
38780;BME280;29273;49.962;9.768;2023-06-26T01:18:24;99705.84;;;22.79;46.69
38780;BME280;29273;49.962;9.768;2023-06-26T01:20:50;99711.03;;;22.75;46.94
38780;BME280;29273;49.962;9.768;2023-06-26T01:28:28;99703.81;;;22.65;46.91
38780;BME280;29273;49.962;9.768;2023-06-26T01:30:56;99708.16;;;22.61;46.94
38780;BME280;29273;49.962;9.768;2023-06-26T01:33:22;99720.34;;;22.59;47.12
38780;BME280;29273;49.962;9.768;2023-06-26T01:35:51;99710.13;;;22.56;47.48
38780;BME280;29273;49.962;9.768;2023-06-26T01:38:20;99706.34;;;22.57;45.89
38780;BME280;29273;49.962;9.768;2023-06-26T01:40:46;99703.97;;;22.50;47.49
38780;BME280;29273;49.962;9.768;2023-06-26T01:46:06;99698.84;;;22.48;45.93
38780;BME280;29273;49.962;9.768;2023-06-26T01:48:40;99701.84;;;22.47;45.90
38780;BME280;29273;49.962;9.768;2023-06-26T01:51:08;99705.41;;;22.37;47.71
38780;BME280;29273;49.962;9.768;2023-06-26T01:53:38;99697.84;;;22.39;45.86
38780;BME280;29273;49.962;9.768;2023-06-26T01:56:13;99699.22;;;22.37;45.97
38780;BME280;29273;49.962;9.768;2023-06-26T01:58:45;99700.06;;;22.32;46.34
38780;BME280;29273;49.962;9.768;2023-06-26T02:01:12;99701.72;;;22.23;47.85
38780;BME280;29273;49.962;9.768;2023-06-26T02:03:37;99695.28;;;22.18;47.92
38780;BME280;29273;49.962;9.768;2023-06-26T02:06:03;99691.25;;;22.16;48.21
38780;BME280;29273;49.962;9.768;2023-06-26T02:08:28;99699.09;;;22.12;48.41
38780;BME280;29273;49.962;9.768;2023-06-26T02:10:55;99699.66;;;22.09;48.23
38780;BME280;29273;49.962;9.768;2023-06-26T02:13:21;99699.41;;;22.06;48.37
38780;BME280;29273;49.962;9.768;2023-06-26T02:15:47;99693.50;;;22.04;48.49
38780;BME280;29273;49.962;9.768;2023-06-26T02:18:13;99695.97;;;22.00;48.61
38780;BME280;29273;49.962;9.768;2023-06-26T02:20:38;99693.81;;;21.97;48.55
38780;BME280;29273;49.962;9.768;2023-06-26T02:23:05;99690.59;;;21.95;48.60
38780;BME280;29273;49.962;9.768;2023-06-26T02:25:30;99696.56;;;21.92;48.65
38780;BME280;29273;49.962;9.768;2023-06-26T02:27:56;99696.28;;;21.88;48.46
38780;BME280;29273;49.962;9.768;2023-06-26T02:30:21;99695.75;;;21.86;48.71
38780;BME280;29273;49.962;9.768;2023-06-26T02:32:47;99696.03;;;21.85;48.38
38780;BME280;29273;49.962;9.768;2023-06-26T02:35:13;99693.63;;;21.83;48.64
38780;BME280;29273;49.962;9.768;2023-06-26T02:37:41;99697.69;;;21.80;48.71
38780;BME280;29273;49.962;9.768;2023-06-26T02:40:07;99697.19;;;21.78;48.70
38780;BME280;29273;49.962;9.768;2023-06-26T02:42:35;99690.44;;;21.76;48.70
38780;BME280;29273;49.962;9.768;2023-06-26T02:45:00;99690.19;;;21.72;48.68
38780;BME280;29273;49.962;9.768;2023-06-26T02:47:27;99690.47;;;21.71;48.54
38780;BME280;29273;49.962;9.768;2023-06-26T02:49:53;99688.59;;;21.66;49.00
38780;BME280;29273;49.962;9.768;2023-06-26T02:52:18;99685.66;;;21.62;48.64
38780;BME280;29273;49.962;9.768;2023-06-26T02:54:44;99694.81;;;21.61;48.73
38780;BME280;29273;49.962;9.768;2023-06-26T02:57:11;99694.56;;;21.58;49.10
38780;BME280;29273;49.962;9.768;2023-06-26T02:59:38;99688.66;;;21.56;49.05
38780;BME280;29273;49.962;9.768;2023-06-26T03:02:04;99694.31;;;21.54;49.15
38780;BME280;29273;49.962;9.768;2023-06-26T03:04:38;99687.91;;;21.50;49.21
38780;BME280;29273;49.962;9.768;2023-06-26T03:07:07;99679.25;;;21.48;49.16
38780;BME280;29273;49.962;9.768;2023-06-26T03:09:32;99684.38;;;21.44;49.04
38780;BME280;29273;49.962;9.768;2023-06-26T03:11:58;99683.84;;;21.42;49.21
38780;BME280;29273;49.962;9.768;2023-06-26T03:14:23;99675.25;;;21.40;49.30
38780;BME280;29273;49.962;9.768;2023-06-26T03:16:49;99674.72;;;21.38;49.35
38780;BME280;29273;49.962;9.768;2023-06-26T03:19:16;99683.06;;;21.37;49.35
38780;BME280;29273;49.962;9.768;2023-06-26T03:22:02;99673.91;;;21.33;49.32
38780;BME280;29273;49.962;9.768;2023-06-26T03:24:29;99681.47;;;21.31;49.42
38780;BME280;29273;49.962;9.768;2023-06-26T03:26:54;99684.44;;;21.29;49.37
38780;BME280;29273;49.962;9.768;2023-06-26T03:29:20;99673.69;;;21.24;49.54
38780;BME280;29273;49.962;9.768;2023-06-26T03:31:45;99675.03;;;21.21;49.70
38780;BME280;29273;49.962;9.768;2023-06-26T03:34:12;99681.81;;;21.19;49.88
38780;BME280;29273;49.962;9.768;2023-06-26T03:36:37;99682.34;;;21.16;49.90
38780;BME280;29273;49.962;9.768;2023-06-26T03:39:03;99679.13;;;21.14;49.84
38780;BME280;29273;49.962;9.768;2023-06-26T03:41:29;99687.47;;;21.12;49.76
38780;BME280;29273;49.962;9.768;2023-06-26T03:43:55;99683.44;;;21.10;50.06
38780;BME280;29273;49.962;9.768;2023-06-26T03:46:26;99679.41;;;21.07;50.04
38780;BME280;29273;49.962;9.768;2023-06-26T03:48:51;99694.75;;;21.06;49.91
38780;BME280;29273;49.962;9.768;2023-06-26T03:51:17;99682.66;;;21.04;49.87
38780;BME280;29273;49.962;9.768;2023-06-26T03:53:43;99680.75;;;21.04;49.90
38780;BME280;29273;49.962;9.768;2023-06-26T03:56:08;99688.59;;;21.01;50.14
38780;BME280;29273;49.962;9.768;2023-06-26T03:58:34;99698.56;;;21.00;50.17
38780;BME280;29273;49.962;9.768;2023-06-26T04:00:59;99694.25;;;20.99;50.24
38780;BME280;29273;49.962;9.768;2023-06-26T04:03:25;99688.84;;;20.99;50.33
38780;BME280;29273;49.962;9.768;2023-06-26T04:05:51;99684.53;;;20.98;50.43
38780;BME280;29273;49.962;9.768;2023-06-26T04:08:16;99686.44;;;20.98;50.44
38780;BME280;29273;49.962;9.768;2023-06-26T04:10:42;99683.75;;;20.98;50.64
38780;BME280;29273;49.962;9.768;2023-06-26T04:13:11;99682.94;;;20.97;50.58
38780;BME280;29273;49.962;9.768;2023-06-26T04:15:36;99688.59;;;20.96;50.72
38780;BME280;29273;49.962;9.768;2023-06-26T04:18:01;99687.53;;;20.97;50.65
38780;BME280;29273;49.962;9.768;2023-06-26T04:20:28;99684.84;;;20.97;50.70
38780;BME280;29273;49.962;9.768;2023-06-26T04:22:53;99690.22;;;20.97;50.82
38780;BME280;29273;49.962;9.768;2023-06-26T04:25:19;99691.03;;;20.97;50.79
38780;BME280;29273;49.962;9.768;2023-06-26T04:27:44;99690.22;;;20.97;50.79
38780;BME280;29273;49.962;9.768;2023-06-26T04:30:10;99689.41;;;20.96;50.78
38780;BME280;29273;49.962;9.768;2023-06-26T04:32:37;99690.50;;;20.95;50.93
38780;BME280;29273;49.962;9.768;2023-06-26T04:35:02;99689.41;;;20.96;50.94
38780;BME280;29273;49.962;9.768;2023-06-26T04:37:28;99693.19;;;20.95;51.04
38780;BME280;29273;49.962;9.768;2023-06-26T04:39:53;99694.78;;;20.96;51.17
38780;BME280;29273;49.962;9.768;2023-06-26T04:42:19;99688.59;;;20.96;51.31
38780;BME280;29273;49.962;9.768;2023-06-26T04:44:47;99688.31;;;20.97;51.35
38780;BME280;29273;49.962;9.768;2023-06-26T04:47:12;99692.63;;;20.98;51.21
38780;BME280;29273;49.962;9.768;2023-06-26T04:49:40;99692.63;;;20.98;51.52
38780;BME280;29273;49.962;9.768;2023-06-26T04:52:08;99686.16;;;20.99;51.35
38780;BME280;29273;49.962;9.768;2023-06-26T04:54:33;99695.03;;;21.00;51.38
38780;BME280;29273;49.962;9.768;2023-06-26T04:56:59;99685.91;;;21.01;51.75
38780;BME280;29273;49.962;9.768;2023-06-26T04:59:25;99692.06;;;21.01;51.56
38780;BME280;29273;49.962;9.768;2023-06-26T05:01:50;99705.25;;;21.03;51.54
38780;BME280;29273;49.962;9.768;2023-06-26T05:04:16;99702.31;;;21.04;51.93
38780;BME280;29273;49.962;9.768;2023-06-26T05:06:41;99696.13;;;21.04;51.71
38780;BME280;29273;49.962;9.768;2023-06-26T05:09:07;99684.81;;;21.07;52.00
38780;BME280;29273;49.962;9.768;2023-06-26T05:11:32;99681.00;;;21.08;52.01
38780;BME280;29273;49.962;9.768;2023-06-26T05:13:58;99681.84;;;21.09;52.39
38780;BME280;29273;49.962;9.768;2023-06-26T05:16:23;99684.00;;;21.12;52.68
38780;BME280;29273;49.962;9.768;2023-06-26T05:18:49;99690.97;;;21.13;52.27
38780;BME280;29273;49.962;9.768;2023-06-26T05:21:15;99695.00;;;21.15;51.93
38780;BME280;29273;49.962;9.768;2023-06-26T05:23:42;99686.66;;;21.17;52.13
38780;BME280;29273;49.962;9.768;2023-06-26T05:26:09;99680.19;;;21.18;52.40
38780;BME280;29273;49.962;9.768;2023-06-26T05:28:36;99682.59;;;21.19;52.33
38780;BME280;29273;49.962;9.768;2023-06-26T05:31:03;99683.94;;;21.22;52.21
38780;BME280;29273;49.962;9.768;2023-06-26T05:33:30;99676.38;;;21.24;52.09
38780;BME280;29273;49.962;9.768;2023-06-26T05:35:56;99677.19;;;21.24;52.51
38780;BME280;29273;49.962;9.768;2023-06-26T05:38:22;99676.13;;;21.25;52.29
38780;BME280;29273;49.962;9.768;2023-06-26T05:40:48;99679.34;;;21.28;52.02
38780;BME280;29273;49.962;9.768;2023-06-26T05:43:14;99680.69;;;21.30;52.25
38780;BME280;29273;49.962;9.768;2023-06-26T05:45:40;99675.03;;;21.32;52.34
38780;BME280;29273;49.962;9.768;2023-06-26T05:48:06;99682.53;;;21.35;51.99
38780;BME280;29273;49.962;9.768;2023-06-26T05:50:32;99681.97;;;21.38;51.96
38780;BME280;29273;49.962;9.768;2023-06-26T05:52:58;99672.56;;;21.40;52.15
38780;BME280;29273;49.962;9.768;2023-06-26T05:55:24;99679.25;;;21.43;52.37
38780;BME280;29273;49.962;9.768;2023-06-26T05:57:50;99681.97;;;21.48;51.70
38780;BME280;29273;49.962;9.768;2023-06-26T06:00:16;99680.09;;;21.49;51.69
38780;BME280;29273;49.962;9.768;2023-06-26T06:02:42;99678.44;;;21.53;51.83
38780;BME280;29273;49.962;9.768;2023-06-26T06:05:08;99679.78;;;21.55;51.85
38780;BME280;29273;49.962;9.768;2023-06-26T06:07:34;99672.75;;;21.59;51.99
38780;BME280;29273;49.962;9.768;2023-06-26T06:10:00;99671.91;;;21.64;52.44
38780;BME280;29273;49.962;9.768;2023-06-26T06:12:26;99661.38;;;21.68;52.42
38780;BME280;29273;49.962;9.768;2023-06-26T06:14:52;99664.03;;;21.73;52.09
38780;BME280;29273;49.962;9.768;2023-06-26T06:17:21;99662.94;;;21.79;52.29
38780;BME280;29273;49.962;9.768;2023-06-26T06:19:47;99658.56;;;21.83;52.59
38780;BME280;29273;49.962;9.768;2023-06-26T06:22:12;99661.53;;;21.87;52.49
38780;BME280;29273;49.962;9.768;2023-06-26T06:24:38;99663.09;;;21.93;52.05
38780;BME280;29273;49.962;9.768;2023-06-26T06:27:04;99658.50;;;21.98;51.89
38780;BME280;29273;49.962;9.768;2023-06-26T06:29:29;99667.63;;;22.03;51.53
38780;BME280;29273;49.962;9.768;2023-06-26T06:31:56;99663.53;;;22.10;51.15
38780;BME280;29273;49.962;9.768;2023-06-26T06:34:21;99668.09;;;22.15;51.27
38780;BME280;29273;49.962;9.768;2023-06-26T06:36:47;99664.78;;;22.18;51.38
38780;BME280;29273;49.962;9.768;2023-06-26T06:39:12;99662.88;;;22.24;51.28
38780;BME280;29273;49.962;9.768;2023-06-26T06:41:38;99667.16;;;22.30;51.44
38780;BME280;29273;49.962;9.768;2023-06-26T06:44:05;99671.41;;;22.36;51.77
38780;BME280;29273;49.962;9.768;2023-06-26T06:46:30;99665.19;;;22.41;52.17
38780;BME280;29273;49.962;9.768;2023-06-26T06:48:56;99655.13;;;22.46;52.10
38780;BME280;29273;49.962;9.768;2023-06-26T06:51:22;99663.19;;;22.51;51.60
38780;BME280;29273;49.962;9.768;2023-06-26T06:53:47;99655.88;;;22.57;51.01
38780;BME280;29273;49.962;9.768;2023-06-26T06:56:13;99661.72;;;22.64;51.70
38780;BME280;29273;49.962;9.768;2023-06-26T06:58:38;99653.84;;;22.68;51.51
38780;BME280;29273;49.962;9.768;2023-06-26T07:01:09;99655.34;;;22.79;49.99
38780;BME280;29273;49.962;9.768;2023-06-26T07:03:34;99654.28;;;22.80;50.21
38780;BME280;29273;49.962;9.768;2023-06-26T07:06:00;99651.22;;;22.87;50.54
38780;BME280;29273;49.962;9.768;2023-06-26T07:08:25;99643.06;;;22.92;50.97
38780;BME280;29273;49.962;9.768;2023-06-26T07:10:51;99643.00;;;22.97;51.10
38780;BME280;29273;49.962;9.768;2023-06-26T07:13:16;99637.25;;;23.04;50.67
38780;BME280;29273;49.962;9.768;2023-06-26T07:15:42;99639.13;;;23.08;50.35
38780;BME280;29273;49.962;9.768;2023-06-26T07:18:08;99636.06;;;23.15;51.03
38780;BME280;29273;49.962;9.768;2023-06-26T07:20:33;99629.78;;;23.20;50.64
38780;BME280;29273;49.962;9.768;2023-06-26T07:22:59;99627.03;;;23.25;50.31
38780;BME280;29273;49.962;9.768;2023-06-26T07:25:24;99625.06;;;23.31;50.26
38780;BME280;29273;49.962;9.768;2023-06-26T07:27:49;99636.59;;;23.36;50.35
38780;BME280;29273;49.962;9.768;2023-06-26T07:30:15;99630.03;;;23.42;50.17
38780;BME280;29273;49.962;9.768;2023-06-26T07:32:40;99627.56;;;23.46;49.82
38780;BME280;29273;49.962;9.768;2023-06-26T07:35:07;99627.19;;;23.53;49.82
38780;BME280;29273;49.962;9.768;2023-06-26T07:37:32;99619.28;;;23.56;49.95
38780;BME280;29273;49.962;9.768;2023-06-26T07:39:58;99617.63;;;23.60;49.97
38780;BME280;29273;49.962;9.768;2023-06-26T07:42:23;99627.28;;;23.67;49.85
38780;BME280;29273;49.962;9.768;2023-06-26T07:44:49;99617.97;;;23.73;49.85
38780;BME280;29273;49.962;9.768;2023-06-26T07:47:15;99627.63;;;23.79;49.87
38780;BME280;29273;49.962;9.768;2023-06-26T07:49:40;99622.16;;;23.84;50.38
38780;BME280;29273;49.962;9.768;2023-06-26T07:52:06;99615.59;;;23.90;49.67
38780;BME280;29273;49.962;9.768;2023-06-26T07:54:32;99612.78;;;23.95;49.61
38780;BME280;29273;49.962;9.768;2023-06-26T07:57:02;99615.91;;;24.02;49.40
38780;BME280;29273;49.962;9.768;2023-06-26T07:59:29;99607.91;;;24.11;49.49
38780;BME280;29273;49.962;9.768;2023-06-26T08:01:56;99608.94;;;24.15;49.46
38780;BME280;29273;49.962;9.768;2023-06-26T08:04:26;99610.38;;;24.27;48.91
38780;BME280;29273;49.962;9.768;2023-06-26T08:06:56;99598.34;;;24.33;48.76
38780;BME280;29273;49.962;9.768;2023-06-26T08:09:25;99600.16;;;24.37;48.90
38780;BME280;29273;49.962;9.768;2023-06-26T08:11:51;99604.19;;;24.40;48.53
38780;BME280;29273;49.962;9.768;2023-06-26T08:14:17;99601.88;;;24.47;48.58
38780;BME280;29273;49.962;9.768;2023-06-26T08:16:43;99603.91;;;24.55;48.57
38780;BME280;29273;49.962;9.768;2023-06-26T08:19:09;99596.78;;;24.60;49.12
38780;BME280;29273;49.962;9.768;2023-06-26T08:21:35;99601.00;;;24.66;49.13
38780;BME280;29273;49.962;9.768;2023-06-26T08:24:01;99599.03;;;24.71;49.05
38780;BME280;29273;49.962;9.768;2023-06-26T08:26:26;99604.25;;;24.82;48.87
38780;BME280;29273;49.962;9.768;2023-06-26T08:28:52;99597.88;;;24.86;49.31
38780;BME280;29273;49.962;9.768;2023-06-26T08:31:17;99597.47;;;24.93;49.18
38780;BME280;29273;49.962;9.768;2023-06-26T08:33:43;99595.19;;;25.00;48.37
38780;BME280;29273;49.962;9.768;2023-06-26T08:36:09;99595.88;;;25.06;48.83
38780;BME280;29273;49.962;9.768;2023-06-26T08:38:34;99591.66;;;25.14;48.26
38780;BME280;29273;49.962;9.768;2023-06-26T08:40:59;99583.13;;;25.20;48.32
38780;BME280;29273;49.962;9.768;2023-06-26T08:43:26;99601.69;;;25.27;47.82
38780;BME280;29273;49.962;9.768;2023-06-26T08:45:52;99590.44;;;25.34;48.75
38780;BME280;29273;49.962;9.768;2023-06-26T08:48:18;99598.16;;;25.40;48.92
38780;BME280;29273;49.962;9.768;2023-06-26T08:50:44;99593.09;;;25.47;48.51
38780;BME280;29273;49.962;9.768;2023-06-26T08:56:00;99594.16;;;25.60;48.07
38780;BME280;29273;49.962;9.768;2023-06-26T08:58:27;99591.50;;;25.69;48.01
38780;BME280;29273;49.962;9.768;2023-06-26T09:00:52;99581.34;;;25.75;47.92
38780;BME280;29273;49.962;9.768;2023-06-26T09:03:19;99577.09;;;25.82;47.53
38780;BME280;29273;49.962;9.768;2023-06-26T09:05:45;99579.34;;;25.89;47.43
38780;BME280;29273;49.962;9.768;2023-06-26T09:08:10;99583.59;;;25.95;45.63
38780;BME280;29273;49.962;9.768;2023-06-26T09:10:36;99582.03;;;26.03;45.40
38780;BME280;29273;49.962;9.768;2023-06-26T09:13:02;99581.28;;;26.11;45.58
38780;BME280;29273;49.962;9.768;2023-06-26T09:15:37;99576.56;;;26.26;46.57
38780;BME280;29273;49.962;9.768;2023-06-26T09:18:04;99579.75;;;26.28;45.61
38780;BME280;29273;49.962;9.768;2023-06-26T09:20:30;99572.00;;;26.35;45.10
38780;BME280;29273;49.962;9.768;2023-06-26T09:22:58;99568.81;;;26.42;44.95
38780;BME280;29273;49.962;9.768;2023-06-26T09:25:24;99563.72;;;26.49;45.46
38780;BME280;29273;49.962;9.768;2023-06-26T09:27:50;99565.19;;;26.55;45.36
38780;BME280;29273;49.962;9.768;2023-06-26T09:30:19;99567.81;;;26.69;45.85
38780;BME280;29273;49.962;9.768;2023-06-26T09:32:45;99559.34;;;26.70;44.93
38780;BME280;29273;49.962;9.768;2023-06-26T09:35:11;99552.34;;;26.78;43.93
38780;BME280;29273;49.962;9.768;2023-06-26T09:37:36;99541.03;;;26.85;43.97
38780;BME280;29273;49.962;9.768;2023-06-26T09:40:03;99540.25;;;26.93;42.93
38780;BME280;29273;49.962;9.768;2023-06-26T09:42:30;99550.63;;;27.00;41.08
38780;BME280;29273;49.962;9.768;2023-06-26T09:44:55;99545.19;;;27.08;41.68
38780;BME280;29273;49.962;9.768;2023-06-26T09:47:21;99541.19;;;27.14;42.54
38780;BME280;29273;49.962;9.768;2023-06-26T09:49:47;99536.09;;;27.22;42.78
38780;BME280;29273;49.962;9.768;2023-06-26T09:52:17;99527.81;;;27.36;42.35
38780;BME280;29273;49.962;9.768;2023-06-26T09:54:43;99532.13;;;27.37;41.70
38780;BME280;29273;49.962;9.768;2023-06-26T09:57:13;99526.69;;;27.45;41.36
38780;BME280;29273;49.962;9.768;2023-06-26T09:59:41;99531.94;;;27.50;40.05
38780;BME280;29273;49.962;9.768;2023-06-26T10:02:07;99527.63;;;27.58;39.89
38780;BME280;29273;49.962;9.768;2023-06-26T10:04:34;99533.38;;;27.65;39.78
38780;BME280;29273;49.962;9.768;2023-06-26T10:07:04;99523.44;;;27.78;40.87
38780;BME280;29273;49.962;9.768;2023-06-26T10:09:31;99524.22;;;27.79;38.66
38780;BME280;29273;49.962;9.768;2023-06-26T10:14:42;99524.34;;;27.91;38.08
38780;BME280;29273;49.962;9.768;2023-06-26T10:17:15;99518.41;;;28.07;40.00
38780;BME280;29273;49.962;9.768;2023-06-26T10:19:43;99519.34;;;28.11;38.87
38780;BME280;29273;49.962;9.768;2023-06-26T10:22:12;99508.41;;;28.19;39.51
38780;BME280;29273;49.962;9.768;2023-06-26T10:24:40;99513.53;;;28.21;37.19
38780;BME280;29273;49.962;9.768;2023-06-26T10:27:20;99515.72;;;28.36;39.81
38780;BME280;29273;49.962;9.768;2023-06-26T10:29:49;99511.22;;;28.40;39.36
38780;BME280;29273;49.962;9.768;2023-06-26T10:32:17;99516.00;;;28.43;38.07
38780;BME280;29273;49.962;9.768;2023-06-26T10:34:44;99516.78;;;28.53;37.00
38780;BME280;29273;49.962;9.768;2023-06-26T10:37:11;99512.22;;;28.66;38.00
38780;BME280;29273;49.962;9.768;2023-06-26T10:39:50;99523.53;;;28.76;38.96
38780;BME280;29273;49.962;9.768;2023-06-26T10:42:17;99513.44;;;28.77;36.45
38780;BME280;29273;49.962;9.768;2023-06-26T10:44:45;99509.84;;;28.85;36.69
38780;BME280;29273;49.962;9.768;2023-06-26T10:47:30;99510.59;;;28.94;36.65
38780;BME280;29273;49.962;9.768;2023-06-26T10:49:56;99506.41;;;28.97;35.88
38780;BME280;29273;49.962;9.768;2023-06-26T10:52:26;99512.38;;;29.11;36.46
38780;BME280;29273;49.962;9.768;2023-06-26T10:54:54;99515.06;;;29.20;36.24
38780;BME280;29273;49.962;9.768;2023-06-26T10:57:23;99509.06;;;29.27;36.61
38780;BME280;29273;49.962;9.768;2023-06-26T11:00:08;99507.25;;;29.31;35.30
38780;BME280;29273;49.962;9.768;2023-06-26T11:02:47;99513.44;;;29.40;36.85
38780;BME280;29273;49.962;9.768;2023-06-26T11:05:23;99510.97;;;29.47;36.66
38780;BME280;29273;49.962;9.768;2023-06-26T11:08:22;99518.34;;;29.47;36.93
38780;BME280;29273;49.962;9.768;2023-06-26T11:11:07;99523.94;;;29.50;34.96
38780;BME280;29273;49.962;9.768;2023-06-26T11:13:34;99523.38;;;29.57;35.27
38780;BME280;29273;49.962;9.768;2023-06-26T11:16:01;99529.28;;;29.59;34.86
38780;BME280;29273;49.962;9.768;2023-06-26T11:18:27;99525.56;;;29.64;34.46
38780;BME280;29273;49.962;9.768;2023-06-26T11:20:53;99534.69;;;29.68;34.49
38780;BME280;29273;49.962;9.768;2023-06-26T11:23:22;99536.19;;;29.78;34.89
38780;BME280;29273;49.962;9.768;2023-06-26T11:25:49;99542.00;;;29.76;33.54
38780;BME280;29273;49.962;9.768;2023-06-26T11:28:15;99523.16;;;29.83;32.93
38780;BME280;29273;49.962;9.768;2023-06-26T11:30:40;99524.06;;;29.87;33.40
38780;BME280;29273;49.962;9.768;2023-06-26T11:33:09;99534.91;;;29.96;33.54
38780;BME280;29273;49.962;9.768;2023-06-26T11:35:34;99536.13;;;29.99;33.15
38780;BME280;29273;49.962;9.768;2023-06-26T11:38:02;99541.03;;;30.05;33.94
38780;BME280;29273;49.962;9.768;2023-06-26T11:40:34;99546.72;;;30.13;34.16
38780;BME280;29273;49.962;9.768;2023-06-26T11:43:01;99550.16;;;30.10;33.63
38780;BME280;29273;49.962;9.768;2023-06-26T11:45:28;99554.13;;;30.12;32.50
38780;BME280;29273;49.962;9.768;2023-06-26T11:47:56;99562.22;;;30.21;33.80
38780;BME280;29273;49.962;9.768;2023-06-26T11:50:22;99553.84;;;30.26;32.43
38780;BME280;29273;49.962;9.768;2023-06-26T11:52:58;99557.38;;;30.39;34.28
38780;BME280;29273;49.962;9.768;2023-06-26T11:55:25;99553.84;;;30.38;33.12
38780;BME280;29273;49.962;9.768;2023-06-26T11:57:54;99559.66;;;30.49;34.42
38780;BME280;29273;49.962;9.768;2023-06-26T12:00:20;99551.78;;;30.48;32.96
38780;BME280;29273;49.962;9.768;2023-06-26T12:02:46;99554.66;;;30.51;32.35
38780;BME280;29273;49.962;9.768;2023-06-26T12:05:15;99547.22;;;30.64;33.64
38780;BME280;29273;49.962;9.768;2023-06-26T12:07:42;99553.19;;;30.66;32.57
38780;BME280;29273;49.962;9.768;2023-06-26T12:10:10;99550.56;;;30.70;33.08
38780;BME280;29273;49.962;9.768;2023-06-26T12:12:37;99545.88;;;30.70;31.97
38780;BME280;29273;49.962;9.768;2023-06-26T12:15:02;99554.16;;;30.74;31.99
38780;BME280;29273;49.962;9.768;2023-06-26T12:17:29;99554.50;;;30.72;31.89
38780;BME280;29273;49.962;9.768;2023-06-26T12:19:54;99554.84;;;30.71;32.05
38780;BME280;29273;49.962;9.768;2023-06-26T12:22:20;99548.25;;;30.72;32.49
38780;BME280;29273;49.962;9.768;2023-06-26T12:24:46;99546.31;;;30.72;32.18
38780;BME280;29273;49.962;9.768;2023-06-26T12:27:14;99547.56;;;30.75;32.46
38780;BME280;29273;49.962;9.768;2023-06-26T12:29:45;99550.41;;;30.78;32.33
38780;BME280;29273;49.962;9.768;2023-06-26T12:32:10;99555.44;;;30.76;32.15
38780;BME280;29273;49.962;9.768;2023-06-26T12:34:37;99547.00;;;30.81;33.40
38780;BME280;29273;49.962;9.768;2023-06-26T12:37:10;99550.72;;;30.89;33.28
38780;BME280;29273;49.962;9.768;2023-06-26T12:42:16;99558.25;;;30.92;32.56
38780;BME280;29273;49.962;9.768;2023-06-26T12:44:42;99555.63;;;30.96;32.81
38780;BME280;29273;49.962;9.768;2023-06-26T12:47:07;99558.16;;;31.01;32.21
38780;BME280;29273;49.962;9.768;2023-06-26T12:49:35;99556.75;;;31.07;32.00
38780;BME280;29273;49.962;9.768;2023-06-26T12:52:02;99547.53;;;31.12;32.27
38780;BME280;29273;49.962;9.768;2023-06-26T12:54:29;99566.78;;;31.15;32.05
38780;BME280;29273;49.962;9.768;2023-06-26T12:56:55;99554.34;;;31.18;31.73
38780;BME280;29273;49.962;9.768;2023-06-26T12:59:21;99553.66;;;31.21;32.27
38780;BME280;29273;49.962;9.768;2023-06-26T13:01:47;99558.41;;;31.24;31.76
38780;BME280;29273;49.962;9.768;2023-06-26T13:04:13;99558.88;;;31.26;31.87
38780;BME280;29273;49.962;9.768;2023-06-26T13:06:38;99556.59;;;31.28;31.39
38780;BME280;29273;49.962;9.768;2023-06-26T13:09:03;99554.31;;;31.30;31.26
38780;BME280;29273;49.962;9.768;2023-06-26T13:11:30;99557.03;;;31.30;31.22
38780;BME280;29273;49.962;9.768;2023-06-26T13:13:56;99553.63;;;31.33;31.10